sensor_id;sensor_type;location;lat;lon;timestamp;P1;durP1;ratioP1;P2;durP2;ratioP2
52564;SDS011;38460;53.106;7.004;2023-05-20T00:00:24;10.45;;;4.70;;
52564;SDS011;38460;53.106;7.004;2023-05-20T00:02:50;9.57;;;5.25;;
52564;SDS011;38460;53.106;7.004;2023-05-20T00:05:16;8.35;;;4.80;;
52564;SDS011;38460;53.106;7.004;2023-05-20T00:07:41;10.18;;;4.93;;
52564;SDS011;38460;53.106;7.004;2023-05-20T00:10:07;8.13;;;4.60;;
52564;SDS011;38460;53.106;7.004;2023-05-20T00:12:33;9.02;;;5.50;;
52564;SDS011;38460;53.106;7.004;2023-05-20T00:14:59;9.40;;;4.43;;
52564;SDS011;38460;53.106;7.004;2023-05-20T00:17:25;8.82;;;4.70;;
52564;SDS011;38460;53.106;7.004;2023-05-20T00:19:52;7.65;;;4.30;;
52564;SDS011;38460;53.106;7.004;2023-05-20T00:22:18;11.60;;;4.60;;
52564;SDS011;38460;53.106;7.004;2023-05-20T00:24:44;9.02;;;6.15;;
52564;SDS011;38460;53.106;7.004;2023-05-20T00:27:10;7.30;;;4.53;;
52564;SDS011;38460;53.106;7.004;2023-05-20T00:29:36;8.05;;;4.47;;
52564;SDS011;38460;53.106;7.004;2023-05-20T00:32:01;8.05;;;5.13;;
52564;SDS011;38460;53.106;7.004;2023-05-20T00:34:27;8.07;;;4.55;;
52564;SDS011;38460;53.106;7.004;2023-05-20T00:36:53;8.32;;;4.70;;
52564;SDS011;38460;53.106;7.004;2023-05-20T00:39:18;8.40;;;5.28;;
52564;SDS011;38460;53.106;7.004;2023-05-20T00:41:44;10.05;;;5.35;;
52564;SDS011;38460;53.106;7.004;2023-05-20T00:44:10;9.20;;;5.00;;
52564;SDS011;38460;53.106;7.004;2023-05-20T00:46:36;11.30;;;4.82;;
52564;SDS011;38460;53.106;7.004;2023-05-20T00:49:02;9.95;;;4.63;;
52564;SDS011;38460;53.106;7.004;2023-05-20T00:51:27;7.80;;;5.03;;
52564;SDS011;38460;53.106;7.004;2023-05-20T00:53:53;7.15;;;5.00;;
52564;SDS011;38460;53.106;7.004;2023-05-20T00:56:20;10.13;;;4.78;;
52564;SDS011;38460;53.106;7.004;2023-05-20T00:58:46;9.38;;;4.78;;
52564;SDS011;38460;53.106;7.004;2023-05-20T01:01:13;7.28;;;4.35;;
52564;SDS011;38460;53.106;7.004;2023-05-20T01:03:39;7.20;;;4.55;;
52564;SDS011;38460;53.106;7.004;2023-05-20T01:06:05;7.68;;;4.63;;
52564;SDS011;38460;53.106;7.004;2023-05-20T01:08:30;7.07;;;4.20;;
52564;SDS011;38460;53.106;7.004;2023-05-20T01:11:02;8.45;;;4.65;;
52564;SDS011;38460;53.106;7.004;2023-05-20T01:13:32;11.68;;;4.95;;
52564;SDS011;38460;53.106;7.004;2023-05-20T01:16:25;9.73;;;4.88;;
52564;SDS011;38460;53.106;7.004;2023-05-20T01:18:54;6.88;;;4.22;;
52564;SDS011;38460;53.106;7.004;2023-05-20T01:21:21;8.55;;;4.78;;
52564;SDS011;38460;53.106;7.004;2023-05-20T01:23:47;8.95;;;4.70;;
52564;SDS011;38460;53.106;7.004;2023-05-20T01:26:13;9.75;;;4.40;;
52564;SDS011;38460;53.106;7.004;2023-05-20T01:28:39;7.80;;;4.60;;
52564;SDS011;38460;53.106;7.004;2023-05-20T01:31:30;6.47;;;5.07;;
52564;SDS011;38460;53.106;7.004;2023-05-20T01:33:55;6.60;;;4.18;;
52564;SDS011;38460;53.106;7.004;2023-05-20T01:36:22;9.13;;;4.68;;
52564;SDS011;38460;53.106;7.004;2023-05-20T01:38:48;8.63;;;4.35;;
52564;SDS011;38460;53.106;7.004;2023-05-20T01:41:15;9.98;;;4.88;;
52564;SDS011;38460;53.106;7.004;2023-05-20T01:43:42;7.43;;;3.97;;
52564;SDS011;38460;53.106;7.004;2023-05-20T01:46:08;9.57;;;4.47;;
52564;SDS011;38460;53.106;7.004;2023-05-20T01:48:34;7.65;;;4.97;;
52564;SDS011;38460;53.106;7.004;2023-05-20T01:51:02;7.95;;;4.25;;
52564;SDS011;38460;53.106;7.004;2023-05-20T01:53:28;8.38;;;4.68;;
52564;SDS011;38460;53.106;7.004;2023-05-20T01:55:53;8.43;;;4.63;;
52564;SDS011;38460;53.106;7.004;2023-05-20T01:58:19;7.65;;;4.95;;
52564;SDS011;38460;53.106;7.004;2023-05-20T02:00:45;10.52;;;4.45;;
52564;SDS011;38460;53.106;7.004;2023-05-20T02:03:11;10.48;;;4.40;;
52564;SDS011;38460;53.106;7.004;2023-05-20T02:05:36;6.60;;;4.07;;
52564;SDS011;38460;53.106;7.004;2023-05-20T02:08:02;11.32;;;4.50;;
52564;SDS011;38460;53.106;7.004;2023-05-20T02:10:28;9.85;;;4.25;;
52564;SDS011;38460;53.106;7.004;2023-05-20T02:12:54;8.20;;;4.63;;
52564;SDS011;38460;53.106;7.004;2023-05-20T02:15:19;8.80;;;4.32;;
52564;SDS011;38460;53.106;7.004;2023-05-20T02:17:45;6.20;;;4.30;;
52564;SDS011;38460;53.106;7.004;2023-05-20T02:20:11;9.13;;;4.75;;
52564;SDS011;38460;53.106;7.004;2023-05-20T02:22:38;6.63;;;4.40;;
52564;SDS011;38460;53.106;7.004;2023-05-20T02:25:03;6.72;;;4.30;;
52564;SDS011;38460;53.106;7.004;2023-05-20T02:27:30;6.63;;;4.20;;
52564;SDS011;38460;53.106;7.004;2023-05-20T02:29:56;8.27;;;4.75;;
52564;SDS011;38460;53.106;7.004;2023-05-20T02:32:21;6.38;;;4.45;;
52564;SDS011;38460;53.106;7.004;2023-05-20T02:34:52;10.73;;;4.90;;
52564;SDS011;38460;53.106;7.004;2023-05-20T02:37:18;7.05;;;4.50;;
52564;SDS011;38460;53.106;7.004;2023-05-20T02:39:44;7.93;;;4.30;;
52564;SDS011;38460;53.106;7.004;2023-05-20T02:42:10;7.93;;;4.28;;
52564;SDS011;38460;53.106;7.004;2023-05-20T02:44:36;8.27;;;4.47;;
52564;SDS011;38460;53.106;7.004;2023-05-20T02:47:02;7.88;;;4.38;;
52564;SDS011;38460;53.106;7.004;2023-05-20T02:49:27;6.22;;;4.15;;
52564;SDS011;38460;53.106;7.004;2023-05-20T02:51:53;5.65;;;3.70;;
52564;SDS011;38460;53.106;7.004;2023-05-20T02:54:19;7.80;;;4.32;;
52564;SDS011;38460;53.106;7.004;2023-05-20T02:56:45;6.40;;;4.13;;
52564;SDS011;38460;53.106;7.004;2023-05-20T02:59:11;7.68;;;3.95;;
52564;SDS011;38460;53.106;7.004;2023-05-20T03:01:36;9.30;;;3.95;;
52564;SDS011;38460;53.106;7.004;2023-05-20T03:04:04;6.75;;;3.53;;
52564;SDS011;38460;53.106;7.004;2023-05-20T03:06:30;5.55;;;3.42;;
52564;SDS011;38460;53.106;7.004;2023-05-20T03:08:56;6.55;;;3.90;;
52564;SDS011;38460;53.106;7.004;2023-05-20T03:11:22;7.43;;;3.75;;
52564;SDS011;38460;53.106;7.004;2023-05-20T03:13:48;8.30;;;3.58;;
52564;SDS011;38460;53.106;7.004;2023-05-20T03:16:14;7.00;;;3.70;;
52564;SDS011;38460;53.106;7.004;2023-05-20T03:18:40;5.15;;;3.42;;
52564;SDS011;38460;53.106;7.004;2023-05-20T03:21:06;7.80;;;3.63;;
52564;SDS011;38460;53.106;7.004;2023-05-20T03:23:33;5.63;;;3.20;;
52564;SDS011;38460;53.106;7.004;2023-05-20T03:25:59;6.50;;;3.78;;
52564;SDS011;38460;53.106;7.004;2023-05-20T03:28:25;5.50;;;3.53;;
52564;SDS011;38460;53.106;7.004;2023-05-20T03:30:51;7.35;;;3.95;;
52564;SDS011;38460;53.106;7.004;2023-05-20T03:33:17;4.55;;;3.10;;
52564;SDS011;38460;53.106;7.004;2023-05-20T03:35:43;5.43;;;3.35;;
52564;SDS011;38460;53.106;7.004;2023-05-20T03:38:09;6.05;;;3.38;;
52564;SDS011;38460;53.106;7.004;2023-05-20T03:40:34;4.57;;;2.60;;
52564;SDS011;38460;53.106;7.004;2023-05-20T03:43:00;5.63;;;3.72;;
52564;SDS011;38460;53.106;7.004;2023-05-20T03:45:26;5.18;;;3.30;;
52564;SDS011;38460;53.106;7.004;2023-05-20T03:47:51;4.35;;;2.85;;
52564;SDS011;38460;53.106;7.004;2023-05-20T03:50:17;5.22;;;2.75;;
52564;SDS011;38460;53.106;7.004;2023-05-20T03:52:43;5.55;;;3.80;;
52564;SDS011;38460;53.106;7.004;2023-05-20T03:55:09;5.75;;;3.05;;
52564;SDS011;38460;53.106;7.004;2023-05-20T03:57:35;5.10;;;2.90;;
52564;SDS011;38460;53.106;7.004;2023-05-20T04:00:01;4.47;;;2.70;;
52564;SDS011;38460;53.106;7.004;2023-05-20T04:02:29;5.07;;;2.70;;
52564;SDS011;38460;53.106;7.004;2023-05-20T04:04:55;5.03;;;2.85;;
52564;SDS011;38460;53.106;7.004;2023-05-20T04:07:22;4.10;;;2.55;;
52564;SDS011;38460;53.106;7.004;2023-05-20T04:09:47;4.22;;;2.47;;
52564;SDS011;38460;53.106;7.004;2023-05-20T04:12:13;4.65;;;2.90;;
52564;SDS011;38460;53.106;7.004;2023-05-20T04:14:39;5.93;;;2.90;;
52564;SDS011;38460;53.106;7.004;2023-05-20T04:17:06;4.88;;;2.58;;
52564;SDS011;38460;53.106;7.004;2023-05-20T04:19:32;3.78;;;2.47;;
52564;SDS011;38460;53.106;7.004;2023-05-20T04:21:58;3.28;;;2.25;;
52564;SDS011;38460;53.106;7.004;2023-05-20T04:24:25;3.05;;;2.40;;
52564;SDS011;38460;53.106;7.004;2023-05-20T04:26:52;3.70;;;2.22;;
52564;SDS011;38460;53.106;7.004;2023-05-20T04:29:18;4.25;;;2.33;;
52564;SDS011;38460;53.106;7.004;2023-05-20T04:31:44;6.72;;;2.40;;
52564;SDS011;38460;53.106;7.004;2023-05-20T04:34:11;3.65;;;2.33;;
52564;SDS011;38460;53.106;7.004;2023-05-20T04:36:37;3.33;;;2.03;;
52564;SDS011;38460;53.106;7.004;2023-05-20T04:39:03;4.53;;;2.25;;
52564;SDS011;38460;53.106;7.004;2023-05-20T04:41:29;3.95;;;2.10;;
52564;SDS011;38460;53.106;7.004;2023-05-20T04:43:55;6.30;;;2.20;;
52564;SDS011;38460;53.106;7.004;2023-05-20T04:46:25;3.13;;;2.00;;
52564;SDS011;38460;53.106;7.004;2023-05-20T04:48:52;3.63;;;1.98;;
52564;SDS011;38460;53.106;7.004;2023-05-20T04:51:18;5.72;;;2.25;;
52564;SDS011;38460;53.106;7.004;2023-05-20T04:53:44;3.15;;;2.20;;
52564;SDS011;38460;53.106;7.004;2023-05-20T04:56:10;4.10;;;2.00;;
52564;SDS011;38460;53.106;7.004;2023-05-20T04:58:37;2.78;;;1.60;;
52564;SDS011;38460;53.106;7.004;2023-05-20T05:01:03;2.88;;;1.50;;
52564;SDS011;38460;53.106;7.004;2023-05-20T05:03:30;3.15;;;2.03;;
52564;SDS011;38460;53.106;7.004;2023-05-20T05:05:56;3.38;;;2.15;;
52564;SDS011;38460;53.106;7.004;2023-05-20T05:08:23;4.03;;;1.77;;
52564;SDS011;38460;53.106;7.004;2023-05-20T05:10:49;3.45;;;1.75;;
52564;SDS011;38460;53.106;7.004;2023-05-20T05:13:15;4.20;;;1.73;;
52564;SDS011;38460;53.106;7.004;2023-05-20T05:15:40;4.90;;;1.95;;
52564;SDS011;38460;53.106;7.004;2023-05-20T05:18:06;5.57;;;2.35;;
52564;SDS011;38460;53.106;7.004;2023-05-20T05:20:32;2.90;;;1.50;;
52564;SDS011;38460;53.106;7.004;2023-05-20T05:22:57;2.72;;;1.83;;
52564;SDS011;38460;53.106;7.004;2023-05-20T05:25:23;5.15;;;2.25;;
52564;SDS011;38460;53.106;7.004;2023-05-20T05:27:49;2.60;;;1.50;;
52564;SDS011;38460;53.106;7.004;2023-05-20T05:30:15;4.57;;;1.70;;
52564;SDS011;38460;53.106;7.004;2023-05-20T05:32:41;4.38;;;2.08;;
52564;SDS011;38460;53.106;7.004;2023-05-20T05:35:06;2.28;;;1.48;;
52564;SDS011;38460;53.106;7.004;2023-05-20T05:37:33;4.13;;;1.50;;
52564;SDS011;38460;53.106;7.004;2023-05-20T05:39:59;4.45;;;2.10;;
52564;SDS011;38460;53.106;7.004;2023-05-20T05:42:24;3.72;;;1.52;;
52564;SDS011;38460;53.106;7.004;2023-05-20T05:44:50;2.72;;;1.63;;
52564;SDS011;38460;53.106;7.004;2023-05-20T05:47:16;2.50;;;1.40;;
52564;SDS011;38460;53.106;7.004;2023-05-20T05:49:41;3.15;;;1.50;;
52564;SDS011;38460;53.106;7.004;2023-05-20T05:52:07;2.90;;;1.52;;
52564;SDS011;38460;53.106;7.004;2023-05-20T05:54:33;3.88;;;1.60;;
52564;SDS011;38460;53.106;7.004;2023-05-20T05:56:59;3.05;;;1.48;;
52564;SDS011;38460;53.106;7.004;2023-05-20T05:59:24;2.45;;;1.40;;
52564;SDS011;38460;53.106;7.004;2023-05-20T06:01:50;3.17;;;1.98;;
52564;SDS011;38460;53.106;7.004;2023-05-20T06:04:16;4.13;;;2.08;;
52564;SDS011;38460;53.106;7.004;2023-05-20T06:06:41;2.92;;;1.63;;
52564;SDS011;38460;53.106;7.004;2023-05-20T06:09:07;2.15;;;1.45;;
52564;SDS011;38460;53.106;7.004;2023-05-20T06:11:33;2.40;;;1.40;;
52564;SDS011;38460;53.106;7.004;2023-05-20T06:13:59;4.03;;;1.80;;
52564;SDS011;38460;53.106;7.004;2023-05-20T06:16:25;4.28;;;1.50;;
52564;SDS011;38460;53.106;7.004;2023-05-20T06:18:51;3.72;;;1.67;;
52564;SDS011;38460;53.106;7.004;2023-05-20T06:21:21;4.10;;;1.92;;
52564;SDS011;38460;53.106;7.004;2023-05-20T06:23:47;2.33;;;1.60;;
52564;SDS011;38460;53.106;7.004;2023-05-20T06:26:13;3.88;;;1.85;;
52564;SDS011;38460;53.106;7.004;2023-05-20T06:28:38;5.03;;;1.70;;
52564;SDS011;38460;53.106;7.004;2023-05-20T06:31:04;5.07;;;1.80;;
52564;SDS011;38460;53.106;7.004;2023-05-20T06:33:30;4.10;;;2.10;;
52564;SDS011;38460;53.106;7.004;2023-05-20T06:35:57;2.45;;;1.45;;
52564;SDS011;38460;53.106;7.004;2023-05-20T06:38:23;3.92;;;1.88;;
52564;SDS011;38460;53.106;7.004;2023-05-20T06:40:48;2.97;;;1.33;;
52564;SDS011;38460;53.106;7.004;2023-05-20T06:43:15;3.42;;;1.70;;
52564;SDS011;38460;53.106;7.004;2023-05-20T06:45:41;2.92;;;1.83;;
52564;SDS011;38460;53.106;7.004;2023-05-20T06:48:07;2.90;;;1.70;;
52564;SDS011;38460;53.106;7.004;2023-05-20T06:50:33;3.95;;;1.70;;
52564;SDS011;38460;53.106;7.004;2023-05-20T06:52:59;4.22;;;1.52;;
52564;SDS011;38460;53.106;7.004;2023-05-20T06:55:26;2.97;;;1.75;;
52564;SDS011;38460;53.106;7.004;2023-05-20T06:57:52;4.13;;;1.50;;
52564;SDS011;38460;53.106;7.004;2023-05-20T07:00:17;2.53;;;1.65;;
52564;SDS011;38460;53.106;7.004;2023-05-20T07:02:44;3.58;;;1.60;;
52564;SDS011;38460;53.106;7.004;2023-05-20T07:05:10;3.35;;;1.73;;
52564;SDS011;38460;53.106;7.004;2023-05-20T07:07:36;3.88;;;1.60;;
52564;SDS011;38460;53.106;7.004;2023-05-20T07:10:03;4.22;;;1.80;;
52564;SDS011;38460;53.106;7.004;2023-05-20T07:12:30;3.75;;;1.60;;
52564;SDS011;38460;53.106;7.004;2023-05-20T07:14:56;3.55;;;1.70;;
52564;SDS011;38460;53.106;7.004;2023-05-20T07:17:22;4.28;;;1.30;;
52564;SDS011;38460;53.106;7.004;2023-05-20T07:19:49;4.18;;;1.73;;
52564;SDS011;38460;53.106;7.004;2023-05-20T07:22:15;4.47;;;1.77;;
52564;SDS011;38460;53.106;7.004;2023-05-20T07:24:40;4.07;;;2.10;;
52564;SDS011;38460;53.106;7.004;2023-05-20T07:27:08;3.92;;;1.92;;
52564;SDS011;38460;53.106;7.004;2023-05-20T07:29:37;4.03;;;1.88;;
52564;SDS011;38460;53.106;7.004;2023-05-20T07:32:03;5.68;;;1.88;;
52564;SDS011;38460;53.106;7.004;2023-05-20T07:34:29;3.88;;;1.88;;
52564;SDS011;38460;53.106;7.004;2023-05-20T07:36:55;4.38;;;2.15;;
52564;SDS011;38460;53.106;7.004;2023-05-20T07:39:22;4.30;;;2.22;;
52564;SDS011;38460;53.106;7.004;2023-05-20T07:41:48;3.92;;;1.70;;
52564;SDS011;38460;53.106;7.004;2023-05-20T07:44:14;3.35;;;1.83;;
52564;SDS011;38460;53.106;7.004;2023-05-20T07:46:43;3.05;;;1.88;;
52564;SDS011;38460;53.106;7.004;2023-05-20T07:49:09;4.88;;;2.08;;
52564;SDS011;38460;53.106;7.004;2023-05-20T07:51:35;4.43;;;2.25;;
52564;SDS011;38460;53.106;7.004;2023-05-20T07:54:01;3.13;;;2.00;;
52564;SDS011;38460;53.106;7.004;2023-05-20T07:56:27;6.60;;;2.22;;
52564;SDS011;38460;53.106;7.004;2023-05-20T07:58:54;4.25;;;2.10;;
52564;SDS011;38460;53.106;7.004;2023-05-20T08:01:22;4.60;;;2.40;;
52564;SDS011;38460;53.106;7.004;2023-05-20T08:03:48;4.78;;;2.40;;
52564;SDS011;38460;53.106;7.004;2023-05-20T08:06:14;4.18;;;2.47;;
52564;SDS011;38460;53.106;7.004;2023-05-20T08:08:41;6.28;;;2.20;;
52564;SDS011;38460;53.106;7.004;2023-05-20T08:11:07;4.40;;;2.17;;
52564;SDS011;38460;53.106;7.004;2023-05-20T08:13:34;3.80;;;2.38;;
52564;SDS011;38460;53.106;7.004;2023-05-20T08:16:00;4.95;;;3.03;;
52564;SDS011;38460;53.106;7.004;2023-05-20T08:18:28;2.83;;;2.13;;
52564;SDS011;38460;53.106;7.004;2023-05-20T08:20:54;5.35;;;2.13;;
52564;SDS011;38460;53.106;7.004;2023-05-20T08:23:19;3.90;;;2.40;;
52564;SDS011;38460;53.106;7.004;2023-05-20T08:25:45;5.97;;;2.85;;
52564;SDS011;38460;53.106;7.004;2023-05-20T08:28:12;3.25;;;2.10;;
52564;SDS011;38460;53.106;7.004;2023-05-20T08:30:38;4.65;;;2.38;;
52564;SDS011;38460;53.106;7.004;2023-05-20T08:33:05;3.83;;;2.38;;
52564;SDS011;38460;53.106;7.004;2023-05-20T08:35:31;4.00;;;2.35;;
52564;SDS011;38460;53.106;7.004;2023-05-20T08:37:57;3.40;;;2.38;;
52564;SDS011;38460;53.106;7.004;2023-05-20T08:40:23;4.90;;;2.38;;
52564;SDS011;38460;53.106;7.004;2023-05-20T08:42:50;4.70;;;2.58;;
52564;SDS011;38460;53.106;7.004;2023-05-20T08:45:17;5.25;;;2.58;;
52564;SDS011;38460;53.106;7.004;2023-05-20T08:47:45;8.27;;;2.67;;
52564;SDS011;38460;53.106;7.004;2023-05-20T08:50:12;3.85;;;2.25;;
52564;SDS011;38460;53.106;7.004;2023-05-20T08:52:42;3.45;;;2.50;;
52564;SDS011;38460;53.106;7.004;2023-05-20T08:55:55;3.13;;;2.28;;
52564;SDS011;38460;53.106;7.004;2023-05-20T08:58:06;4.28;;;2.33;;
52564;SDS011;38460;53.106;7.004;2023-05-20T09:00:31;4.07;;;2.42;;
52564;SDS011;38460;53.106;7.004;2023-05-20T09:02:58;2.70;;;1.85;;
52564;SDS011;38460;53.106;7.004;2023-05-20T09:05:24;3.75;;;2.50;;
52564;SDS011;38460;53.106;7.004;2023-05-20T09:07:51;5.95;;;2.53;;
52564;SDS011;38460;53.106;7.004;2023-05-20T09:10:17;3.67;;;2.05;;
52564;SDS011;38460;53.106;7.004;2023-05-20T09:12:44;4.07;;;2.33;;
52564;SDS011;38460;53.106;7.004;2023-05-20T09:15:10;4.55;;;2.10;;
52564;SDS011;38460;53.106;7.004;2023-05-20T09:17:36;4.97;;;2.22;;
52564;SDS011;38460;53.106;7.004;2023-05-20T09:20:06;7.40;;;2.40;;
52564;SDS011;38460;53.106;7.004;2023-05-20T09:22:33;4.72;;;2.58;;
52564;SDS011;38460;53.106;7.004;2023-05-20T09:24:59;4.72;;;2.28;;
52564;SDS011;38460;53.106;7.004;2023-05-20T09:27:25;4.88;;;2.58;;
52564;SDS011;38460;53.106;7.004;2023-05-20T09:29:51;8.68;;;3.00;;
52564;SDS011;38460;53.106;7.004;2023-05-20T09:32:17;3.28;;;2.13;;
52564;SDS011;38460;53.106;7.004;2023-05-20T09:34:47;6.37;;;2.53;;
52564;SDS011;38460;53.106;7.004;2023-05-20T09:37:14;4.35;;;2.20;;
52564;SDS011;38460;53.106;7.004;2023-05-20T09:39:56;5.15;;;2.95;;
52564;SDS011;38460;53.106;7.004;2023-05-20T09:42:26;4.57;;;2.45;;
52564;SDS011;38460;53.106;7.004;2023-05-20T09:44:56;4.25;;;2.45;;
52564;SDS011;38460;53.106;7.004;2023-05-20T09:47:23;5.07;;;2.03;;
52564;SDS011;38460;53.106;7.004;2023-05-20T09:49:51;4.65;;;2.47;;
52564;SDS011;38460;53.106;7.004;2023-05-20T09:52:18;7.38;;;3.13;;
52564;SDS011;38460;53.106;7.004;2023-05-20T09:54:44;5.15;;;2.63;;
52564;SDS011;38460;53.106;7.004;2023-05-20T09:57:11;4.60;;;2.38;;
52564;SDS011;38460;53.106;7.004;2023-05-20T09:59:37;5.55;;;2.38;;
52564;SDS011;38460;53.106;7.004;2023-05-20T10:02:05;5.82;;;2.42;;
52564;SDS011;38460;53.106;7.004;2023-05-20T10:04:36;5.28;;;2.38;;
52564;SDS011;38460;53.106;7.004;2023-05-20T10:15:35;4.25;;;2.17;;
52564;SDS011;38460;53.106;7.004;2023-05-20T10:18:41;3.08;;;2.33;;
52564;SDS011;38460;53.106;7.004;2023-05-20T10:21:16;4.32;;;1.90;;
52564;SDS011;38460;53.106;7.004;2023-05-20T10:23:48;6.60;;;2.55;;
52564;SDS011;38460;53.106;7.004;2023-05-20T10:26:15;4.03;;;2.10;;
52564;SDS011;38460;53.106;7.004;2023-05-20T10:28:41;5.53;;;2.42;;
52564;SDS011;38460;53.106;7.004;2023-05-20T10:31:14;4.45;;;2.20;;
52564;SDS011;38460;53.106;7.004;2023-05-20T10:33:42;3.65;;;2.20;;
52564;SDS011;38460;53.106;7.004;2023-05-20T10:36:20;4.63;;;2.30;;
52564;SDS011;38460;53.106;7.004;2023-05-20T10:38:54;3.50;;;2.08;;
52564;SDS011;38460;53.106;7.004;2023-05-20T10:41:23;3.80;;;2.20;;
52564;SDS011;38460;53.106;7.004;2023-05-20T10:44:03;5.60;;;2.05;;
52564;SDS011;38460;53.106;7.004;2023-05-20T10:46:30;4.97;;;2.33;;
52564;SDS011;38460;53.106;7.004;2023-05-20T10:48:57;3.78;;;2.10;;
52564;SDS011;38460;53.106;7.004;2023-05-20T10:51:24;5.05;;;2.13;;
52564;SDS011;38460;53.106;7.004;2023-05-20T10:53:53;4.25;;;2.53;;
52564;SDS011;38460;53.106;7.004;2023-05-20T10:56:21;6.28;;;2.28;;
52564;SDS011;38460;53.106;7.004;2023-05-20T10:58:51;4.15;;;2.30;;
52564;SDS011;38460;53.106;7.004;2023-05-20T11:01:22;4.32;;;2.25;;
52564;SDS011;38460;53.106;7.004;2023-05-20T11:03:49;3.25;;;2.10;;
52564;SDS011;38460;53.106;7.004;2023-05-20T11:06:16;5.28;;;2.10;;
52564;SDS011;38460;53.106;7.004;2023-05-20T11:08:43;5.72;;;2.42;;
52564;SDS011;38460;53.106;7.004;2023-05-20T11:11:10;8.05;;;2.40;;
52564;SDS011;38460;53.106;7.004;2023-05-20T11:13:37;3.90;;;1.98;;
52564;SDS011;38460;53.106;7.004;2023-05-20T11:16:03;4.45;;;1.85;;
52564;SDS011;38460;53.106;7.004;2023-05-20T11:18:29;5.85;;;2.00;;
52564;SDS011;38460;53.106;7.004;2023-05-20T11:20:59;3.28;;;1.98;;
52564;SDS011;38460;53.106;7.004;2023-05-20T11:23:26;3.13;;;1.88;;
52564;SDS011;38460;53.106;7.004;2023-05-20T11:25:53;5.90;;;2.47;;
52564;SDS011;38460;53.106;7.004;2023-05-20T11:28:21;3.00;;;1.98;;
52564;SDS011;38460;53.106;7.004;2023-05-20T11:30:51;6.55;;;2.47;;
52564;SDS011;38460;53.106;7.004;2023-05-20T11:33:17;5.85;;;2.28;;
52564;SDS011;38460;53.106;7.004;2023-05-20T11:35:47;3.03;;;2.00;;
52564;SDS011;38460;53.106;7.004;2023-05-20T11:38:15;5.10;;;2.00;;
52564;SDS011;38460;53.106;7.004;2023-05-20T11:40:42;2.60;;;1.55;;
52564;SDS011;38460;53.106;7.004;2023-05-20T11:43:09;4.90;;;1.70;;
52564;SDS011;38460;53.106;7.004;2023-05-20T11:45:40;4.50;;;2.17;;
52564;SDS011;38460;53.106;7.004;2023-05-20T11:48:07;4.72;;;2.00;;
52564;SDS011;38460;53.106;7.004;2023-05-20T11:50:37;4.70;;;1.90;;
52564;SDS011;38460;53.106;7.004;2023-05-20T11:53:08;7.88;;;2.53;;
52564;SDS011;38460;53.106;7.004;2023-05-20T11:55:55;4.53;;;2.08;;
52564;SDS011;38460;53.106;7.004;2023-05-20T11:58:26;5.40;;;2.03;;
52564;SDS011;38460;53.106;7.004;2023-05-20T12:00:54;3.47;;;1.85;;
52564;SDS011;38460;53.106;7.004;2023-05-20T12:03:20;5.78;;;1.88;;
52564;SDS011;38460;53.106;7.004;2023-05-20T12:05:46;3.65;;;2.13;;
52564;SDS011;38460;53.106;7.004;2023-05-20T12:08:13;5.93;;;1.85;;
52564;SDS011;38460;53.106;7.004;2023-05-20T12:10:39;3.22;;;1.80;;
52564;SDS011;38460;53.106;7.004;2023-05-20T12:13:05;4.25;;;2.08;;
52564;SDS011;38460;53.106;7.004;2023-05-20T12:15:36;4.00;;;1.85;;
52564;SDS011;38460;53.106;7.004;2023-05-20T12:18:02;4.60;;;1.85;;
52564;SDS011;38460;53.106;7.004;2023-05-20T12:20:28;5.82;;;2.45;;
52564;SDS011;38460;53.106;7.004;2023-05-20T12:22:55;4.40;;;2.03;;
52564;SDS011;38460;53.106;7.004;2023-05-20T12:25:21;2.67;;;1.90;;
52564;SDS011;38460;53.106;7.004;2023-05-20T12:27:48;3.42;;;1.80;;
52564;SDS011;38460;53.106;7.004;2023-05-20T12:30:17;4.13;;;2.15;;
52564;SDS011;38460;53.106;7.004;2023-05-20T12:32:45;2.92;;;1.80;;
52564;SDS011;38460;53.106;7.004;2023-05-20T12:35:11;4.63;;;2.13;;
52564;SDS011;38460;53.106;7.004;2023-05-20T12:37:38;6.35;;;2.58;;
52564;SDS011;38460;53.106;7.004;2023-05-20T12:40:08;3.20;;;1.83;;
52564;SDS011;38460;53.106;7.004;2023-05-20T12:42:37;4.25;;;2.53;;
52564;SDS011;38460;53.106;7.004;2023-05-20T12:45:03;2.70;;;1.85;;
52564;SDS011;38460;53.106;7.004;2023-05-20T12:47:30;4.53;;;2.13;;
52564;SDS011;38460;53.106;7.004;2023-05-20T12:49:57;5.88;;;2.70;;
52564;SDS011;38460;53.106;7.004;2023-05-20T12:52:23;3.47;;;2.08;;
52564;SDS011;38460;53.106;7.004;2023-05-20T12:54:49;3.60;;;1.98;;
52564;SDS011;38460;53.106;7.004;2023-05-20T12:57:15;5.45;;;1.98;;
52564;SDS011;38460;53.106;7.004;2023-05-20T12:59:43;3.30;;;1.85;;
52564;SDS011;38460;53.106;7.004;2023-05-20T13:02:09;5.35;;;2.58;;
52564;SDS011;38460;53.106;7.004;2023-05-20T13:04:35;5.13;;;2.22;;
52564;SDS011;38460;53.106;7.004;2023-05-20T13:07:01;5.03;;;2.00;;
52564;SDS011;38460;53.106;7.004;2023-05-20T13:09:27;5.05;;;2.15;;
52564;SDS011;38460;53.106;7.004;2023-05-20T13:11:53;3.85;;;2.30;;
52564;SDS011;38460;53.106;7.004;2023-05-20T13:14:18;4.15;;;2.00;;
52564;SDS011;38460;53.106;7.004;2023-05-20T13:16:45;6.60;;;2.55;;
52564;SDS011;38460;53.106;7.004;2023-05-20T13:19:18;4.43;;;1.75;;
52564;SDS011;38460;53.106;7.004;2023-05-20T13:21:56;6.18;;;1.88;;
52564;SDS011;38460;53.106;7.004;2023-05-20T13:24:22;5.65;;;2.53;;
52564;SDS011;38460;53.106;7.004;2023-05-20T13:26:47;2.80;;;1.95;;
52564;SDS011;38460;53.106;7.004;2023-05-20T13:29:13;4.13;;;2.00;;
52564;SDS011;38460;53.106;7.004;2023-05-20T13:31:39;6.07;;;2.55;;
52564;SDS011;38460;53.106;7.004;2023-05-20T13:34:05;5.10;;;1.85;;
52564;SDS011;38460;53.106;7.004;2023-05-20T13:36:31;3.97;;;2.00;;
52564;SDS011;38460;53.106;7.004;2023-05-20T13:38:57;6.50;;;2.22;;
52564;SDS011;38460;53.106;7.004;2023-05-20T13:41:25;4.10;;;1.80;;
52564;SDS011;38460;53.106;7.004;2023-05-20T13:43:51;4.25;;;1.85;;
52564;SDS011;38460;53.106;7.004;2023-05-20T13:46:17;5.18;;;2.03;;
52564;SDS011;38460;53.106;7.004;2023-05-20T13:48:43;3.92;;;1.90;;
52564;SDS011;38460;53.106;7.004;2023-05-20T13:51:09;3.92;;;1.75;;
52564;SDS011;38460;53.106;7.004;2023-05-20T13:53:35;3.95;;;1.60;;
52564;SDS011;38460;53.106;7.004;2023-05-20T13:56:00;3.78;;;1.95;;
52564;SDS011;38460;53.106;7.004;2023-05-20T13:58:26;4.32;;;1.70;;
52564;SDS011;38460;53.106;7.004;2023-05-20T14:00:52;3.83;;;1.85;;
52564;SDS011;38460;53.106;7.004;2023-05-20T14:03:18;4.05;;;1.70;;
52564;SDS011;38460;53.106;7.004;2023-05-20T14:05:44;4.38;;;1.98;;
52564;SDS011;38460;53.106;7.004;2023-05-20T14:08:10;3.65;;;2.20;;
52564;SDS011;38460;53.106;7.004;2023-05-20T14:10:36;4.20;;;2.15;;
52564;SDS011;38460;53.106;7.004;2023-05-20T14:13:02;5.60;;;2.08;;
52564;SDS011;38460;53.106;7.004;2023-05-20T14:15:28;3.85;;;1.88;;
52564;SDS011;38460;53.106;7.004;2023-05-20T14:17:57;4.07;;;2.10;;
52564;SDS011;38460;53.106;7.004;2023-05-20T14:20:23;4.85;;;1.98;;
52564;SDS011;38460;53.106;7.004;2023-05-20T14:22:53;5.53;;;1.70;;
52564;SDS011;38460;53.106;7.004;2023-05-20T14:25:19;3.75;;;1.95;;
52564;SDS011;38460;53.106;7.004;2023-05-20T14:27:44;3.92;;;1.85;;
52564;SDS011;38460;53.106;7.004;2023-05-20T14:30:10;3.60;;;2.05;;
52564;SDS011;38460;53.106;7.004;2023-05-20T14:32:36;3.90;;;1.42;;
52564;SDS011;38460;53.106;7.004;2023-05-20T14:35:02;4.10;;;1.73;;
52564;SDS011;38460;53.106;7.004;2023-05-20T14:37:28;2.63;;;1.85;;
52564;SDS011;38460;53.106;7.004;2023-05-20T14:39:54;5.50;;;2.13;;
52564;SDS011;38460;53.106;7.004;2023-05-20T14:42:20;5.47;;;1.83;;
52564;SDS011;38460;53.106;7.004;2023-05-20T14:44:46;4.00;;;1.80;;
52564;SDS011;38460;53.106;7.004;2023-05-20T14:47:12;3.65;;;1.80;;
52564;SDS011;38460;53.106;7.004;2023-05-20T14:49:46;3.42;;;2.17;;
52564;SDS011;38460;53.106;7.004;2023-05-20T14:52:14;3.55;;;1.80;;
52564;SDS011;38460;53.106;7.004;2023-05-20T14:54:40;3.35;;;1.90;;